Aviation Digital Data Service (ADDS)

Output produced by METARs form (1540 UTC 25 June 2017)
found at http://aviationweather.gov/adds/metars/
 
KOEO 251515Z AUTO 28009KT 10SM OVC014 14/11 A3014 RMK AO2 T01380106